sensor_id;sensor_type;location;lat;lon;timestamp;P1;durP1;ratioP1;P2;durP2;ratioP2
7523;SDS011;3803;51.666;7.630;2023-07-16T00:00:10;5.38;;;2.28;;
7523;SDS011;3803;51.666;7.630;2023-07-16T00:00:31;6.55;;;2.58;;
7523;SDS011;3803;51.666;7.630;2023-07-16T00:00:52;7.78;;;2.90;;
7523;SDS011;3803;51.666;7.630;2023-07-16T00:01:13;7.00;;;2.80;;
7523;SDS011;3803;51.666;7.630;2023-07-16T00:01:34;5.97;;;2.47;;
7523;SDS011;3803;51.666;7.630;2023-07-16T00:01:54;3.75;;;2.20;;
7523;SDS011;3803;51.666;7.630;2023-07-16T00:02:15;3.53;;;2.20;;
7523;SDS011;3803;51.666;7.630;2023-07-16T00:02:37;3.43;;;2.30;;
7523;SDS011;3803;51.666;7.630;2023-07-16T00:02:58;4.03;;;2.33;;
7523;SDS011;3803;51.666;7.630;2023-07-16T00:03:19;6.30;;;2.60;;
7523;SDS011;3803;51.666;7.630;2023-07-16T00:03:39;6.90;;;2.77;;
7523;SDS011;3803;51.666;7.630;2023-07-16T00:04:00;6.90;;;2.85;;
7523;SDS011;3803;51.666;7.630;2023-07-16T00:04:21;4.63;;;2.60;;
7523;SDS011;3803;51.666;7.630;2023-07-16T00:04:41;3.83;;;2.50;;
7523;SDS011;3803;51.666;7.630;2023-07-16T00:05:02;3.92;;;2.50;;
7523;SDS011;3803;51.666;7.630;2023-07-16T00:05:23;4.20;;;2.60;;
7523;SDS011;3803;51.666;7.630;2023-07-16T00:05:44;4.90;;;2.60;;
7523;SDS011;3803;51.666;7.630;2023-07-16T00:06:05;6.03;;;2.70;;
7523;SDS011;3803;51.666;7.630;2023-07-16T00:06:25;6.20;;;2.60;;
7523;SDS011;3803;51.666;7.630;2023-07-16T00:06:46;6.00;;;2.60;;
7523;SDS011;3803;51.666;7.630;2023-07-16T00:07:07;5.90;;;2.50;;
7523;SDS011;3803;51.666;7.630;2023-07-16T00:07:28;5.70;;;2.50;;
7523;SDS011;3803;51.666;7.630;2023-07-16T00:07:48;5.63;;;2.33;;
7523;SDS011;3803;51.666;7.630;2023-07-16T00:08:09;4.40;;;2.30;;
7523;SDS011;3803;51.666;7.630;2023-07-16T00:08:29;5.73;;;2.30;;
7523;SDS011;3803;51.666;7.630;2023-07-16T00:08:50;6.38;;;2.58;;
7523;SDS011;3803;51.666;7.630;2023-07-16T00:09:11;6.20;;;2.70;;
7523;SDS011;3803;51.666;7.630;2023-07-16T00:09:31;5.30;;;2.70;;
7523;SDS011;3803;51.666;7.630;2023-07-16T00:09:52;5.63;;;2.60;;
7523;SDS011;3803;51.666;7.630;2023-07-16T00:10:13;5.45;;;2.58;;
7523;SDS011;3803;51.666;7.630;2023-07-16T00:10:37;5.75;;;2.75;;
7523;SDS011;3803;51.666;7.630;2023-07-16T00:10:58;5.35;;;2.80;;
7523;SDS011;3803;51.666;7.630;2023-07-16T00:11:18;4.73;;;2.70;;
7523;SDS011;3803;51.666;7.630;2023-07-16T00:11:39;4.80;;;2.50;;
7523;SDS011;3803;51.666;7.630;2023-07-16T00:11:59;6.20;;;2.60;;
7523;SDS011;3803;51.666;7.630;2023-07-16T00:12:20;6.93;;;2.70;;
7523;SDS011;3803;51.666;7.630;2023-07-16T00:12:41;6.67;;;2.73;;
7523;SDS011;3803;51.666;7.630;2023-07-16T00:13:04;4.90;;;2.63;;
7523;SDS011;3803;51.666;7.630;2023-07-16T00:13:25;3.67;;;2.20;;
7523;SDS011;3803;51.666;7.630;2023-07-16T00:13:46;3.30;;;2.20;;
7523;SDS011;3803;51.666;7.630;2023-07-16T00:14:09;4.13;;;2.30;;
7523;SDS011;3803;51.666;7.630;2023-07-16T00:14:31;5.07;;;2.80;;
7523;SDS011;3803;51.666;7.630;2023-07-16T00:14:52;5.25;;;2.70;;
7523;SDS011;3803;51.666;7.630;2023-07-16T00:15:13;4.77;;;2.73;;
7523;SDS011;3803;51.666;7.630;2023-07-16T00:15:34;4.45;;;2.50;;
7523;SDS011;3803;51.666;7.630;2023-07-16T00:15:54;4.60;;;2.57;;
7523;SDS011;3803;51.666;7.630;2023-07-16T00:16:15;4.40;;;2.45;;
7523;SDS011;3803;51.666;7.630;2023-07-16T00:16:35;4.90;;;2.75;;
7523;SDS011;3803;51.666;7.630;2023-07-16T00:16:57;5.63;;;3.10;;
7523;SDS011;3803;51.666;7.630;2023-07-16T00:17:18;5.53;;;2.95;;
7523;SDS011;3803;51.666;7.630;2023-07-16T00:17:38;4.60;;;2.75;;
7523;SDS011;3803;51.666;7.630;2023-07-16T00:17:59;4.10;;;2.70;;
7523;SDS011;3803;51.666;7.630;2023-07-16T00:18:20;4.97;;;2.90;;
7523;SDS011;3803;51.666;7.630;2023-07-16T00:18:41;5.07;;;2.80;;
7523;SDS011;3803;51.666;7.630;2023-07-16T00:19:04;5.20;;;2.70;;
7523;SDS011;3803;51.666;7.630;2023-07-16T00:19:25;4.30;;;2.70;;
7523;SDS011;3803;51.666;7.630;2023-07-16T00:19:45;4.22;;;2.75;;
7523;SDS011;3803;51.666;7.630;2023-07-16T00:20:07;4.60;;;2.70;;
7523;SDS011;3803;51.666;7.630;2023-07-16T00:20:28;4.40;;;2.60;;
7523;SDS011;3803;51.666;7.630;2023-07-16T00:20:48;4.43;;;2.45;;
7523;SDS011;3803;51.666;7.630;2023-07-16T00:21:09;4.30;;;2.40;;
7523;SDS011;3803;51.666;7.630;2023-07-16T00:21:29;4.32;;;2.40;;
7523;SDS011;3803;51.666;7.630;2023-07-16T00:21:50;5.32;;;2.85;;
7523;SDS011;3803;51.666;7.630;2023-07-16T00:22:11;4.90;;;2.80;;
7523;SDS011;3803;51.666;7.630;2023-07-16T00:22:31;5.20;;;2.90;;
7523;SDS011;3803;51.666;7.630;2023-07-16T00:22:52;4.53;;;2.75;;
7523;SDS011;3803;51.666;7.630;2023-07-16T00:23:14;5.10;;;2.90;;
7523;SDS011;3803;51.666;7.630;2023-07-16T00:23:35;5.40;;;2.90;;
7523;SDS011;3803;51.666;7.630;2023-07-16T00:23:56;4.93;;;2.90;;
7523;SDS011;3803;51.666;7.630;2023-07-16T00:24:16;4.70;;;3.03;;
7523;SDS011;3803;51.666;7.630;2023-07-16T00:24:37;4.10;;;2.85;;
7523;SDS011;3803;51.666;7.630;2023-07-16T00:24:58;4.43;;;2.90;;
7523;SDS011;3803;51.666;7.630;2023-07-16T00:25:18;5.20;;;2.80;;
7523;SDS011;3803;51.666;7.630;2023-07-16T00:25:39;5.07;;;2.80;;
7523;SDS011;3803;51.666;7.630;2023-07-16T00:25:59;5.15;;;2.60;;
7523;SDS011;3803;51.666;7.630;2023-07-16T00:26:20;3.83;;;2.60;;
7523;SDS011;3803;51.666;7.630;2023-07-16T00:26:41;4.93;;;2.70;;
7523;SDS011;3803;51.666;7.630;2023-07-16T00:27:02;6.00;;;2.90;;
7523;SDS011;3803;51.666;7.630;2023-07-16T00:27:25;7.63;;;3.50;;
7523;SDS011;3803;51.666;7.630;2023-07-16T00:27:46;7.00;;;3.58;;
7523;SDS011;3803;51.666;7.630;2023-07-16T00:28:07;5.25;;;3.33;;
7523;SDS011;3803;51.666;7.630;2023-07-16T00:28:27;4.23;;;2.93;;
7523;SDS011;3803;51.666;7.630;2023-07-16T00:28:48;5.00;;;2.90;;
7523;SDS011;3803;51.666;7.630;2023-07-16T00:29:09;5.40;;;3.00;;
7523;SDS011;3803;51.666;7.630;2023-07-16T00:29:29;5.83;;;3.20;;
7523;SDS011;3803;51.666;7.630;2023-07-16T00:29:50;6.18;;;2.80;;
7523;SDS011;3803;51.666;7.630;2023-07-16T00:30:12;6.50;;;2.90;;
7523;SDS011;3803;51.666;7.630;2023-07-16T00:30:32;6.67;;;2.80;;
7523;SDS011;3803;51.666;7.630;2023-07-16T00:30:53;5.57;;;3.05;;
7523;SDS011;3803;51.666;7.630;2023-07-16T00:31:14;5.00;;;2.92;;
7523;SDS011;3803;51.666;7.630;2023-07-16T00:31:35;4.32;;;3.00;;
7523;SDS011;3803;51.666;7.630;2023-07-16T00:31:55;4.10;;;3.00;;
7523;SDS011;3803;51.666;7.630;2023-07-16T00:32:16;4.20;;;3.00;;
7523;SDS011;3803;51.666;7.630;2023-07-16T00:32:36;4.37;;;2.90;;
7523;SDS011;3803;51.666;7.630;2023-07-16T00:32:57;4.15;;;2.70;;
7523;SDS011;3803;51.666;7.630;2023-07-16T00:33:18;3.50;;;2.40;;
7523;SDS011;3803;51.666;7.630;2023-07-16T00:33:38;4.67;;;2.40;;
7523;SDS011;3803;51.666;7.630;2023-07-16T00:33:59;5.95;;;2.70;;
7523;SDS011;3803;51.666;7.630;2023-07-16T00:34:20;6.88;;;2.97;;
7523;SDS011;3803;51.666;7.630;2023-07-16T00:34:40;6.00;;;3.00;;
7523;SDS011;3803;51.666;7.630;2023-07-16T00:35:02;4.88;;;2.83;;
7523;SDS011;3803;51.666;7.630;2023-07-16T00:35:23;4.85;;;2.75;;
7523;SDS011;3803;51.666;7.630;2023-07-16T00:35:47;4.90;;;2.90;;
7523;SDS011;3803;51.666;7.630;2023-07-16T00:36:11;4.85;;;2.90;;
7523;SDS011;3803;51.666;7.630;2023-07-16T00:36:32;4.75;;;2.80;;
7523;SDS011;3803;51.666;7.630;2023-07-16T00:36:53;4.93;;;2.80;;
7523;SDS011;3803;51.666;7.630;2023-07-16T00:37:14;5.43;;;3.00;;
7523;SDS011;3803;51.666;7.630;2023-07-16T00:37:35;5.65;;;2.90;;
7523;SDS011;3803;51.666;7.630;2023-07-16T00:37:56;6.25;;;3.00;;
7523;SDS011;3803;51.666;7.630;2023-07-16T00:38:17;5.28;;;2.90;;
7523;SDS011;3803;51.666;7.630;2023-07-16T00:38:38;4.65;;;2.90;;
7523;SDS011;3803;51.666;7.630;2023-07-16T00:39:03;4.90;;;2.95;;
7523;SDS011;3803;51.666;7.630;2023-07-16T00:39:24;4.63;;;2.90;;
7523;SDS011;3803;51.666;7.630;2023-07-16T00:39:44;5.78;;;2.72;;
7523;SDS011;3803;51.666;7.630;2023-07-16T00:40:05;5.50;;;2.50;;
7523;SDS011;3803;51.666;7.630;2023-07-16T00:40:27;5.45;;;2.50;;
7523;SDS011;3803;51.666;7.630;2023-07-16T00:40:48;5.25;;;2.60;;
7523;SDS011;3803;51.666;7.630;2023-07-16T00:41:08;5.50;;;2.53;;
7523;SDS011;3803;51.666;7.630;2023-07-16T00:41:30;5.20;;;2.80;;
7523;SDS011;3803;51.666;7.630;2023-07-16T00:41:51;4.30;;;2.70;;
7523;SDS011;3803;51.666;7.630;2023-07-16T00:42:11;4.07;;;2.70;;
7523;SDS011;3803;51.666;7.630;2023-07-16T00:42:32;4.80;;;2.60;;
7523;SDS011;3803;51.666;7.630;2023-07-16T00:42:53;5.80;;;2.80;;
7523;SDS011;3803;51.666;7.630;2023-07-16T00:43:13;5.78;;;3.10;;
7523;SDS011;3803;51.666;7.630;2023-07-16T00:43:34;5.63;;;3.10;;
7523;SDS011;3803;51.666;7.630;2023-07-16T00:43:55;5.57;;;3.40;;
7523;SDS011;3803;51.666;7.630;2023-07-16T00:44:16;5.18;;;3.10;;
7523;SDS011;3803;51.666;7.630;2023-07-16T00:44:36;4.18;;;2.95;;
7523;SDS011;3803;51.666;7.630;2023-07-16T00:44:57;4.53;;;2.70;;
7523;SDS011;3803;51.666;7.630;2023-07-16T00:45:17;4.80;;;2.70;;
7523;SDS011;3803;51.666;7.630;2023-07-16T00:45:39;5.20;;;2.90;;
7523;SDS011;3803;51.666;7.630;2023-07-16T00:46:01;4.53;;;2.80;;
7523;SDS011;3803;51.666;7.630;2023-07-16T00:46:23;5.93;;;2.90;;
7523;SDS011;3803;51.666;7.630;2023-07-16T00:46:44;6.10;;;2.80;;
7523;SDS011;3803;51.666;7.630;2023-07-16T00:47:06;6.50;;;2.80;;
7523;SDS011;3803;51.666;7.630;2023-07-16T00:47:27;5.53;;;2.83;;
7523;SDS011;3803;51.666;7.630;2023-07-16T00:47:47;4.78;;;2.75;;
7523;SDS011;3803;51.666;7.630;2023-07-16T00:48:08;4.30;;;2.70;;
7523;SDS011;3803;51.666;7.630;2023-07-16T00:48:29;4.60;;;2.70;;
7523;SDS011;3803;51.666;7.630;2023-07-16T00:48:50;4.57;;;2.60;;
7523;SDS011;3803;51.666;7.630;2023-07-16T00:49:11;4.45;;;2.78;;
7523;SDS011;3803;51.666;7.630;2023-07-16T00:49:32;4.85;;;2.90;;
7523;SDS011;3803;51.666;7.630;2023-07-16T00:49:53;5.03;;;3.08;;
7523;SDS011;3803;51.666;7.630;2023-07-16T00:50:13;4.40;;;3.00;;
7523;SDS011;3803;51.666;7.630;2023-07-16T00:50:35;4.45;;;3.08;;
7523;SDS011;3803;51.666;7.630;2023-07-16T00:51:00;4.80;;;2.90;;
7523;SDS011;3803;51.666;7.630;2023-07-16T00:51:24;4.63;;;2.65;;
7523;SDS011;3803;51.666;7.630;2023-07-16T00:51:45;4.50;;;2.60;;
7523;SDS011;3803;51.666;7.630;2023-07-16T00:52:07;4.88;;;2.72;;
7523;SDS011;3803;51.666;7.630;2023-07-16T00:53:35;5.53;;;3.03;;
7523;SDS011;3803;51.666;7.630;2023-07-16T00:53:56;5.83;;;2.90;;
7523;SDS011;3803;51.666;7.630;2023-07-16T00:54:16;4.60;;;2.95;;
7523;SDS011;3803;51.666;7.630;2023-07-16T00:54:37;5.32;;;2.80;;
7523;SDS011;3803;51.666;7.630;2023-07-16T00:54:58;6.28;;;2.90;;
7523;SDS011;3803;51.666;7.630;2023-07-16T00:55:19;6.70;;;3.10;;
7523;SDS011;3803;51.666;7.630;2023-07-16T00:55:39;5.23;;;3.20;;
7523;SDS011;3803;51.666;7.630;2023-07-16T00:56:00;4.72;;;3.08;;
7523;SDS011;3803;51.666;7.630;2023-07-16T00:56:21;5.18;;;2.90;;
7523;SDS011;3803;51.666;7.630;2023-07-16T00:56:42;5.00;;;2.72;;
7523;SDS011;3803;51.666;7.630;2023-07-16T00:57:03;5.05;;;2.80;;
7523;SDS011;3803;51.666;7.630;2023-07-16T00:57:24;4.80;;;3.10;;
7523;SDS011;3803;51.666;7.630;2023-07-16T00:57:45;5.07;;;3.30;;
7523;SDS011;3803;51.666;7.630;2023-07-16T00:58:07;4.95;;;3.13;;
7523;SDS011;3803;51.666;7.630;2023-07-16T00:58:28;4.40;;;2.78;;
7523;SDS011;3803;51.666;7.630;2023-07-16T00:58:49;3.67;;;2.53;;
7523;SDS011;3803;51.666;7.630;2023-07-16T00:59:09;4.47;;;2.70;;
7523;SDS011;3803;51.666;7.630;2023-07-16T00:59:30;5.03;;;2.90;;
7523;SDS011;3803;51.666;7.630;2023-07-16T00:59:52;4.85;;;2.90;;
7523;SDS011;3803;51.666;7.630;2023-07-16T01:00:13;4.30;;;2.80;;
7523;SDS011;3803;51.666;7.630;2023-07-16T01:00:34;4.00;;;2.60;;
7523;SDS011;3803;51.666;7.630;2023-07-16T01:00:56;5.05;;;2.80;;
7523;SDS011;3803;51.666;7.630;2023-07-16T01:01:17;5.88;;;2.97;;
7523;SDS011;3803;51.666;7.630;2023-07-16T01:01:39;6.20;;;3.13;;
7523;SDS011;3803;51.666;7.630;2023-07-16T01:02:00;5.35;;;2.97;;
7523;SDS011;3803;51.666;7.630;2023-07-16T01:02:21;4.72;;;2.80;;
7523;SDS011;3803;51.666;7.630;2023-07-16T01:02:42;4.68;;;2.80;;
7523;SDS011;3803;51.666;7.630;2023-07-16T01:03:03;5.20;;;3.10;;
7523;SDS011;3803;51.666;7.630;2023-07-16T01:03:25;5.30;;;3.20;;
7523;SDS011;3803;51.666;7.630;2023-07-16T01:03:46;5.13;;;3.10;;
7523;SDS011;3803;51.666;7.630;2023-07-16T01:04:07;5.40;;;2.90;;
7523;SDS011;3803;51.666;7.630;2023-07-16T01:04:28;8.18;;;2.67;;
7523;SDS011;3803;51.666;7.630;2023-07-16T01:04:49;8.07;;;2.50;;
7523;SDS011;3803;51.666;7.630;2023-07-16T01:05:09;5.20;;;2.60;;
7523;SDS011;3803;51.666;7.630;2023-07-16T01:05:31;4.67;;;2.80;;
7523;SDS011;3803;51.666;7.630;2023-07-16T01:06:16;4.60;;;2.90;;
7523;SDS011;3803;51.666;7.630;2023-07-16T01:06:46;5.38;;;3.20;;
7523;SDS011;3803;51.666;7.630;2023-07-16T01:07:13;6.03;;;3.20;;
7523;SDS011;3803;51.666;7.630;2023-07-16T01:07:35;6.07;;;3.00;;
7523;SDS011;3803;51.666;7.630;2023-07-16T01:07:59;5.18;;;2.80;;
7523;SDS011;3803;51.666;7.630;2023-07-16T01:08:31;6.40;;;3.20;;
7523;SDS011;3803;51.666;7.630;2023-07-16T01:09:23;6.25;;;2.80;;
7523;SDS011;3803;51.666;7.630;2023-07-16T01:09:44;5.30;;;2.83;;
7523;SDS011;3803;51.666;7.630;2023-07-16T01:10:06;5.18;;;3.00;;
7523;SDS011;3803;51.666;7.630;2023-07-16T01:10:28;5.90;;;3.33;;
7523;SDS011;3803;51.666;7.630;2023-07-16T01:10:49;6.20;;;3.28;;
7523;SDS011;3803;51.666;7.630;2023-07-16T01:11:10;6.47;;;3.30;;
7523;SDS011;3803;51.666;7.630;2023-07-16T01:11:32;5.68;;;3.10;;
7523;SDS011;3803;51.666;7.630;2023-07-16T01:11:55;5.63;;;3.20;;
7523;SDS011;3803;51.666;7.630;2023-07-16T01:12:18;5.18;;;2.88;;
7523;SDS011;3803;51.666;7.630;2023-07-16T01:12:41;5.75;;;2.70;;
7523;SDS011;3803;51.666;7.630;2023-07-16T01:13:01;6.68;;;2.78;;
7523;SDS011;3803;51.666;7.630;2023-07-16T01:13:23;6.22;;;3.00;;
7523;SDS011;3803;51.666;7.630;2023-07-16T01:13:44;5.80;;;3.10;;
7523;SDS011;3803;51.666;7.630;2023-07-16T01:14:05;6.00;;;3.20;;
7523;SDS011;3803;51.666;7.630;2023-07-16T01:14:28;6.30;;;3.40;;
7523;SDS011;3803;51.666;7.630;2023-07-16T01:14:50;6.18;;;3.40;;
7523;SDS011;3803;51.666;7.630;2023-07-16T01:15:12;8.98;;;3.70;;
7523;SDS011;3803;51.666;7.630;2023-07-16T01:15:33;9.65;;;4.00;;
7523;SDS011;3803;51.666;7.630;2023-07-16T01:15:54;7.88;;;3.90;;
7523;SDS011;3803;51.666;7.630;2023-07-16T01:16:18;6.43;;;3.40;;
7523;SDS011;3803;51.666;7.630;2023-07-16T01:16:40;6.00;;;3.10;;
7523;SDS011;3803;51.666;7.630;2023-07-16T01:17:02;6.75;;;3.10;;
7523;SDS011;3803;51.666;7.630;2023-07-16T01:17:24;6.57;;;3.10;;
7523;SDS011;3803;51.666;7.630;2023-07-16T01:17:45;6.50;;;3.00;;
7523;SDS011;3803;51.666;7.630;2023-07-16T01:18:05;6.60;;;3.10;;
7523;SDS011;3803;51.666;7.630;2023-07-16T01:18:26;5.85;;;2.88;;
7523;SDS011;3803;51.666;7.630;2023-07-16T01:18:47;5.45;;;2.80;;
7523;SDS011;3803;51.666;7.630;2023-07-16T01:19:09;5.10;;;2.78;;
7523;SDS011;3803;51.666;7.630;2023-07-16T01:19:30;6.43;;;3.20;;
7523;SDS011;3803;51.666;7.630;2023-07-16T01:19:50;6.27;;;3.30;;
7523;SDS011;3803;51.666;7.630;2023-07-16T01:20:11;6.30;;;3.22;;
7523;SDS011;3803;51.666;7.630;2023-07-16T01:20:32;5.18;;;3.15;;
7523;SDS011;3803;51.666;7.630;2023-07-16T01:20:52;5.97;;;3.30;;
7523;SDS011;3803;51.666;7.630;2023-07-16T01:21:13;6.67;;;3.53;;
7523;SDS011;3803;51.666;7.630;2023-07-16T01:23:45;5.55;;;3.00;;
7523;SDS011;3803;51.666;7.630;2023-07-16T01:25:06;5.78;;;2.70;;
7523;SDS011;3803;51.666;7.630;2023-07-16T01:27:17;7.10;;;2.90;;
7523;SDS011;3803;51.666;7.630;2023-07-16T01:27:57;6.25;;;2.90;;
7523;SDS011;3803;51.666;7.630;2023-07-16T01:28:37;5.82;;;2.90;;
7523;SDS011;3803;51.666;7.630;2023-07-16T01:29:29;3.90;;;2.60;;
7523;SDS011;3803;51.666;7.630;2023-07-16T01:30:07;3.70;;;2.50;;
7523;SDS011;3803;51.666;7.630;2023-07-16T01:30:31;5.40;;;2.70;;
7523;SDS011;3803;51.666;7.630;2023-07-16T01:30:53;5.22;;;2.80;;
7523;SDS011;3803;51.666;7.630;2023-07-16T01:31:18;4.82;;;2.75;;
7523;SDS011;3803;51.666;7.630;2023-07-16T01:31:41;4.18;;;2.60;;
7523;SDS011;3803;51.666;7.630;2023-07-16T01:32:03;4.50;;;2.60;;
7523;SDS011;3803;51.666;7.630;2023-07-16T01:32:26;4.50;;;2.90;;
7523;SDS011;3803;51.666;7.630;2023-07-16T01:32:48;5.18;;;2.78;;
7523;SDS011;3803;51.666;7.630;2023-07-16T01:33:09;4.95;;;2.70;;
7523;SDS011;3803;51.666;7.630;2023-07-16T01:33:33;4.82;;;2.40;;
7523;SDS011;3803;51.666;7.630;2023-07-16T01:33:54;5.05;;;2.40;;
7523;SDS011;3803;51.666;7.630;2023-07-16T01:34:16;5.00;;;2.60;;
7523;SDS011;3803;51.666;7.630;2023-07-16T01:34:37;6.80;;;2.80;;
7523;SDS011;3803;51.666;7.630;2023-07-16T01:35:00;6.88;;;2.90;;
7523;SDS011;3803;51.666;7.630;2023-07-16T01:35:22;6.55;;;2.95;;
7523;SDS011;3803;51.666;7.630;2023-07-16T01:35:43;5.50;;;2.70;;
7523;SDS011;3803;51.666;7.630;2023-07-16T01:36:06;5.40;;;2.60;;
7523;SDS011;3803;51.666;7.630;2023-07-16T01:36:27;4.63;;;2.40;;
7523;SDS011;3803;51.666;7.630;2023-07-16T01:36:49;4.30;;;2.45;;
7523;SDS011;3803;51.666;7.630;2023-07-16T01:37:10;4.72;;;2.58;;
7523;SDS011;3803;51.666;7.630;2023-07-16T01:37:31;4.53;;;2.60;;
7523;SDS011;3803;51.666;7.630;2023-07-16T01:37:52;4.47;;;2.50;;
7523;SDS011;3803;51.666;7.630;2023-07-16T01:38:13;5.28;;;2.90;;
7523;SDS011;3803;51.666;7.630;2023-07-16T01:38:36;5.90;;;3.10;;
7523;SDS011;3803;51.666;7.630;2023-07-16T01:38:57;6.85;;;3.17;;
7523;SDS011;3803;51.666;7.630;2023-07-16T01:39:18;6.07;;;2.97;;
7523;SDS011;3803;51.666;7.630;2023-07-16T01:39:39;5.45;;;2.80;;
7523;SDS011;3803;51.666;7.630;2023-07-16T01:40:00;5.30;;;2.70;;
7523;SDS011;3803;51.666;7.630;2023-07-16T01:40:22;4.82;;;2.60;;
7523;SDS011;3803;51.666;7.630;2023-07-16T01:40:44;3.85;;;2.47;;
7523;SDS011;3803;51.666;7.630;2023-07-16T01:41:05;4.97;;;2.58;;
7523;SDS011;3803;51.666;7.630;2023-07-16T01:41:26;5.55;;;2.60;;
7523;SDS011;3803;51.666;7.630;2023-07-16T01:41:46;6.10;;;2.70;;
7523;SDS011;3803;51.666;7.630;2023-07-16T01:42:07;6.03;;;2.70;;
7523;SDS011;3803;51.666;7.630;2023-07-16T01:42:28;6.07;;;2.90;;
7523;SDS011;3803;51.666;7.630;2023-07-16T01:42:48;5.90;;;3.05;;
7523;SDS011;3803;51.666;7.630;2023-07-16T01:43:09;4.80;;;2.90;;
7523;SDS011;3803;51.666;7.630;2023-07-16T01:43:30;4.40;;;2.67;;
7523;SDS011;3803;51.666;7.630;2023-07-16T01:43:50;4.63;;;2.50;;
7523;SDS011;3803;51.666;7.630;2023-07-16T01:44:11;4.55;;;2.50;;
7523;SDS011;3803;51.666;7.630;2023-07-16T01:44:32;6.40;;;2.60;;
7523;SDS011;3803;51.666;7.630;2023-07-16T01:44:52;6.43;;;2.67;;
7523;SDS011;3803;51.666;7.630;2023-07-16T01:45:13;6.70;;;2.80;;
7523;SDS011;3803;51.666;7.630;2023-07-16T01:45:34;5.00;;;2.95;;
7523;SDS011;3803;51.666;7.630;2023-07-16T01:45:54;4.60;;;3.00;;
7523;SDS011;3803;51.666;7.630;2023-07-16T01:46:15;4.70;;;3.17;;
7523;SDS011;3803;51.666;7.630;2023-07-16T01:46:36;6.35;;;2.95;;
7523;SDS011;3803;51.666;7.630;2023-07-16T01:47:11;5.82;;;2.60;;
7523;SDS011;3803;51.666;7.630;2023-07-16T01:47:55;3.78;;;2.40;;
7523;SDS011;3803;51.666;7.630;2023-07-16T01:48:44;4.70;;;3.20;;
7523;SDS011;3803;51.666;7.630;2023-07-16T01:49:05;4.80;;;3.03;;
7523;SDS011;3803;51.666;7.630;2023-07-16T01:49:26;4.88;;;2.70;;
7523;SDS011;3803;51.666;7.630;2023-07-16T01:49:47;5.40;;;3.00;;
7523;SDS011;3803;51.666;7.630;2023-07-16T01:50:08;5.25;;;2.88;;
7523;SDS011;3803;51.666;7.630;2023-07-16T01:50:29;5.10;;;3.00;;
7523;SDS011;3803;51.666;7.630;2023-07-16T01:50:50;4.45;;;3.03;;
7523;SDS011;3803;51.666;7.630;2023-07-16T01:51:10;5.80;;;3.20;;
7523;SDS011;3803;51.666;7.630;2023-07-16T01:51:34;5.90;;;3.20;;
7523;SDS011;3803;51.666;7.630;2023-07-16T01:51:55;5.90;;;3.10;;
7523;SDS011;3803;51.666;7.630;2023-07-16T01:52:15;6.88;;;3.10;;
7523;SDS011;3803;51.666;7.630;2023-07-16T01:52:36;6.95;;;3.33;;
7523;SDS011;3803;51.666;7.630;2023-07-16T01:52:57;6.43;;;3.30;;
7523;SDS011;3803;51.666;7.630;2023-07-16T01:53:19;4.47;;;3.30;;
7523;SDS011;3803;51.666;7.630;2023-07-16T01:53:40;5.10;;;3.30;;
7523;SDS011;3803;51.666;7.630;2023-07-16T01:54:01;5.40;;;3.40;;
7523;SDS011;3803;51.666;7.630;2023-07-16T01:54:24;5.50;;;3.30;;
7523;SDS011;3803;51.666;7.630;2023-07-16T01:54:45;5.85;;;3.20;;
7523;SDS011;3803;51.666;7.630;2023-07-16T01:55:06;6.20;;;3.20;;
7523;SDS011;3803;51.666;7.630;2023-07-16T01:55:27;6.00;;;3.10;;
7523;SDS011;3803;51.666;7.630;2023-07-16T01:55:49;6.22;;;3.20;;
7523;SDS011;3803;51.666;7.630;2023-07-16T01:56:09;6.07;;;3.40;;
7523;SDS011;3803;51.666;7.630;2023-07-16T01:56:30;5.88;;;3.40;;
7523;SDS011;3803;51.666;7.630;2023-07-16T01:56:52;4.47;;;3.08;;
7523;SDS011;3803;51.666;7.630;2023-07-16T01:57:12;5.37;;;3.10;;
7523;SDS011;3803;51.666;7.630;2023-07-16T01:57:33;5.20;;;3.20;;
7523;SDS011;3803;51.666;7.630;2023-07-16T01:57:54;6.10;;;3.58;;
7523;SDS011;3803;51.666;7.630;2023-07-16T01:58:15;5.65;;;3.30;;
7523;SDS011;3803;51.666;7.630;2023-07-16T01:58:36;6.73;;;3.30;;
7523;SDS011;3803;51.666;7.630;2023-07-16T01:58:56;8.23;;;3.35;;
7523;SDS011;3803;51.666;7.630;2023-07-16T01:59:17;8.10;;;3.72;;
7523;SDS011;3803;51.666;7.630;2023-07-16T01:59:38;6.70;;;3.70;;
7523;SDS011;3803;51.666;7.630;2023-07-16T01:59:58;4.82;;;3.35;;
7523;SDS011;3803;51.666;7.630;2023-07-16T02:00:19;4.70;;;3.20;;
7523;SDS011;3803;51.666;7.630;2023-07-16T02:00:40;4.57;;;3.22;;
7523;SDS011;3803;51.666;7.630;2023-07-16T02:01:00;5.97;;;3.20;;
7523;SDS011;3803;51.666;7.630;2023-07-16T02:01:21;6.50;;;3.50;;
7523;SDS011;3803;51.666;7.630;2023-07-16T02:01:42;8.90;;;3.55;;
7523;SDS011;3803;51.666;7.630;2023-07-16T02:02:03;7.70;;;3.40;;
7523;SDS011;3803;51.666;7.630;2023-07-16T02:02:24;7.45;;;3.40;;
7523;SDS011;3803;51.666;7.630;2023-07-16T02:02:45;5.60;;;3.30;;
7523;SDS011;3803;51.666;7.630;2023-07-16T02:03:08;6.72;;;3.58;;
7523;SDS011;3803;51.666;7.630;2023-07-16T02:03:28;5.70;;;3.27;;
7523;SDS011;3803;51.666;7.630;2023-07-16T02:03:49;4.43;;;3.10;;
7523;SDS011;3803;51.666;7.630;2023-07-16T02:04:09;3.67;;;2.97;;
7523;SDS011;3803;51.666;7.630;2023-07-16T02:04:30;4.00;;;3.05;;
7523;SDS011;3803;51.666;7.630;2023-07-16T02:04:52;5.68;;;3.30;;
7523;SDS011;3803;51.666;7.630;2023-07-16T02:05:14;5.97;;;3.45;;
7523;SDS011;3803;51.666;7.630;2023-07-16T02:05:35;9.77;;;3.60;;
7523;SDS011;3803;51.666;7.630;2023-07-16T02:05:55;9.70;;;3.50;;
7523;SDS011;3803;51.666;7.630;2023-07-16T02:06:16;9.07;;;3.50;;
7523;SDS011;3803;51.666;7.630;2023-07-16T02:06:37;7.32;;;3.40;;
7523;SDS011;3803;51.666;7.630;2023-07-16T02:06:57;8.55;;;3.53;;
7523;SDS011;3803;51.666;7.630;2023-07-16T02:07:18;8.70;;;3.40;;
7523;SDS011;3803;51.666;7.630;2023-07-16T02:07:39;7.63;;;3.50;;
7523;SDS011;3803;51.666;7.630;2023-07-16T02:08:00;7.68;;;3.60;;
7523;SDS011;3803;51.666;7.630;2023-07-16T02:08:21;7.85;;;3.67;;
7523;SDS011;3803;51.666;7.630;2023-07-16T02:08:43;6.85;;;3.58;;
7523;SDS011;3803;51.666;7.630;2023-07-16T02:09:03;5.90;;;3.30;;
7523;SDS011;3803;51.666;7.630;2023-07-16T02:09:24;5.83;;;3.40;;
7523;SDS011;3803;51.666;7.630;2023-07-16T02:09:45;5.80;;;3.38;;
7523;SDS011;3803;51.666;7.630;2023-07-16T02:10:06;5.55;;;3.47;;
7523;SDS011;3803;51.666;7.630;2023-07-16T02:10:27;6.53;;;3.45;;
7523;SDS011;3803;51.666;7.630;2023-07-16T02:10:47;8.00;;;3.50;;
7523;SDS011;3803;51.666;7.630;2023-07-16T02:11:09;7.38;;;3.53;;
7523;SDS011;3803;51.666;7.630;2023-07-16T02:11:29;6.27;;;3.23;;
7523;SDS011;3803;51.666;7.630;2023-07-16T02:11:50;5.53;;;3.17;;
7523;SDS011;3803;51.666;7.630;2023-07-16T02:12:10;4.70;;;3.00;;
7523;SDS011;3803;51.666;7.630;2023-07-16T02:12:31;5.10;;;3.10;;
7523;SDS011;3803;51.666;7.630;2023-07-16T02:12:53;4.20;;;3.00;;
7523;SDS011;3803;51.666;7.630;2023-07-16T02:13:13;4.90;;;3.13;;
7523;SDS011;3803;51.666;7.630;2023-07-16T02:13:34;5.40;;;3.30;;
7523;SDS011;3803;51.666;7.630;2023-07-16T02:13:55;5.88;;;3.47;;
7523;SDS011;3803;51.666;7.630;2023-07-16T02:14:15;6.13;;;3.53;;
7523;SDS011;3803;51.666;7.630;2023-07-16T02:14:36;7.10;;;3.60;;
7523;SDS011;3803;51.666;7.630;2023-07-16T02:14:57;6.57;;;3.50;;
7523;SDS011;3803;51.666;7.630;2023-07-16T02:15:18;6.78;;;3.60;;
7523;SDS011;3803;51.666;7.630;2023-07-16T02:15:39;6.10;;;3.47;;
7523;SDS011;3803;51.666;7.630;2023-07-16T02:16:00;7.63;;;3.33;;
7523;SDS011;3803;51.666;7.630;2023-07-16T02:16:21;6.70;;;3.35;;
7523;SDS011;3803;51.666;7.630;2023-07-16T02:16:41;6.35;;;3.20;;
7523;SDS011;3803;51.666;7.630;2023-07-16T02:17:02;4.93;;;3.10;;
7523;SDS011;3803;51.666;7.630;2023-07-16T02:17:23;5.82;;;3.35;;
7523;SDS011;3803;51.666;7.630;2023-07-16T02:17:44;5.97;;;3.60;;
7523;SDS011;3803;51.666;7.630;2023-07-16T02:18:05;5.60;;;3.70;;
7523;SDS011;3803;51.666;7.630;2023-07-16T02:18:29;6.35;;;3.45;;
7523;SDS011;3803;51.666;7.630;2023-07-16T02:18:49;7.30;;;3.50;;
7523;SDS011;3803;51.666;7.630;2023-07-16T02:19:10;8.50;;;3.40;;
7523;SDS011;3803;51.666;7.630;2023-07-16T02:19:31;7.93;;;3.57;;
7523;SDS011;3803;51.666;7.630;2023-07-16T02:19:51;8.05;;;3.47;;
7523;SDS011;3803;51.666;7.630;2023-07-16T02:20:12;7.40;;;3.97;;
7523;SDS011;3803;51.666;7.630;2023-07-16T02:20:33;8.30;;;3.80;;
7523;SDS011;3803;51.666;7.630;2023-07-16T02:20:54;7.47;;;3.80;;
7523;SDS011;3803;51.666;7.630;2023-07-16T02:21:15;6.28;;;3.22;;